Time;durP1;ratioP1;P1;durP2;ratioP2;P2;SDS_P1;SDS_P2;PMS_P1;PMS_P2;Temp;Humidity;BMP_temperature;BMP_pressure;BME280_temperature;BME280_humidity;BME280_pressure;Samples;Min_cycle;Max_cycle;Signal;HPM_P1;HPM_P2
2023/09/11 00:00:38;;;;;;;10.57;9.55;;;27.20;59.80;28.80;101284.00;;;;5111880;28;20229;-87
2023/09/11 00:03:05;;;;;;;9.75;8.75;;;27.20;59.80;28.80;101279.00;;;;5107413;28;20205;-88
2023/09/11 00:05:32;;;;;;;11.95;9.18;;;27.20;59.80;28.80;101278.00;;;;5095353;28;20209;-89
2023/09/11 00:08:02;;;;;;;11.48;9.05;;;27.20;59.90;28.70;101277.00;;;;5099888;28;20201;-88
2023/09/11 00:10:32;;;;;;;10.15;9.15;;;27.10;59.90;28.70;101270.00;;;;5113493;28;20240;-89
2023/09/11 00:13:04;;;;;;;13.10;9.48;;;27.10;59.90;28.70;101268.00;;;;5103911;28;20224;-88
2023/09/11 00:15:32;;;;;;;11.20;8.95;;;27.10;60.10;28.70;101262.00;;;;5109389;28;20210;-88
2023/09/11 00:18:01;;;;;;;10.15;8.32;;;27.10;59.90;28.70;101263.00;;;;5093607;28;20206;-88
2023/09/11 00:20:34;;;;;;;10.35;9.27;;;27.10;60.00;28.60;101264.00;;;;5108585;28;20204;-90
2023/09/11 00:23:08;;;;;;;9.43;8.43;;;27.10;60.30;28.60;101267.00;;;;5113161;28;20205;-89
2023/09/11 00:25:35;;;;;;;9.43;8.52;;;27.00;60.00;28.60;101258.00;;;;5113058;28;20632;-89
2023/09/11 00:28:04;;;;;;;12.65;9.65;;;27.00;60.00;28.60;101262.00;;;;5113882;27;20190;-88
2023/09/11 00:30:31;;;;;;;10.38;9.38;;;27.00;60.10;28.60;101249.00;;;;5091886;28;20202;-88
2023/09/11 00:32:59;;;;;;;12.23;8.93;;;27.00;60.00;28.60;101251.00;;;;5096265;28;20217;-88
2023/09/11 00:35:33;;;;;;;11.93;10.20;;;27.00;60.00;28.50;101252.00;;;;5108966;28;20197;-88
2023/09/11 00:38:01;;;;;;;10.35;9.25;;;27.00;60.30;28.60;101255.00;;;;5111402;28;20190;-88
2023/09/11 00:40:28;;;;;;;10.43;9.32;;;26.90;60.00;28.50;101251.00;;;;5109654;28;20197;-87
2023/09/11 00:42:55;;;;;;;10.60;9.50;;;27.00;60.10;28.50;101257.00;;;;5111788;28;20206;-88
2023/09/11 00:45:25;;;;;;;12.90;9.25;;;26.90;60.10;28.50;101244.00;;;;5102989;28;20556;-88
2023/09/11 00:47:52;;;;;;;11.98;9.85;;;26.90;61.00;28.50;101250.00;;;;5111022;28;20200;-88
2023/09/11 00:50:21;;;;;;;12.20;9.77;;;26.90;60.20;28.40;101252.00;;;;5111224;28;20208;-89
2023/09/11 00:52:51;;;;;;;11.43;9.13;;;26.90;60.30;28.40;101244.00;;;;5112807;28;20225;-88
2023/09/11 00:55:22;;;;;;;10.70;9.60;;;26.90;60.30;28.40;101242.00;;;;5101293;28;20721;-87
2023/09/11 00:57:51;;;;;;;11.18;9.65;;;26.80;60.30;28.40;101252.00;;;;5111428;28;20202;-89
2023/09/11 01:00:20;;;;;;;12.10;9.63;;;26.80;60.30;28.40;101242.00;;;;5106706;28;20690;-89
2023/09/11 01:02:49;;;;;;;10.55;9.52;;;26.80;60.30;28.30;101232.00;;;;5111880;28;20186;-87
2023/09/11 01:05:19;;;;;;;12.45;9.35;;;26.80;60.40;28.30;101240.00;;;;5107251;28;20272;-89
2023/09/11 01:07:52;;;;;;;11.45;9.98;;;26.80;60.40;28.30;101240.00;;;;5110883;28;20198;-88
2023/09/11 01:10:26;;;;;;;12.15;10.15;;;26.80;60.70;28.20;101244.00;;;;5111422;28;20217;-88
2023/09/11 01:12:56;;;;;;;11.18;9.32;;;26.70;60.70;28.30;101238.00;;;;5111372;28;20228;-88
2023/09/11 01:15:28;;;;;;;10.70;9.60;;;26.70;60.50;28.20;101238.00;;;;5111209;28;20197;-89
2023/09/11 01:18:14;;;;;;;12.90;9.23;;;26.70;60.60;28.10;101235.00;;;;5111636;28;20201;-89
2023/09/11 01:21:51;;;;;;;10.90;9.57;;;26.60;60.90;28.10;101238.00;;;;5112689;28;20259;-89
2023/09/11 01:24:51;;;;;;;9.73;8.75;;;26.60;60.90;28.00;101227.00;;;;5026509;28;20212;-89
2023/09/11 01:27:53;;;;;;;10.10;8.68;;;26.60;60.60;28.00;101237.00;;;;5094892;28;20280;-87
2023/09/11 01:30:22;;;;;;;12.57;9.77;;;26.60;60.70;28.10;101221.00;;;;5110123;28;20197;-88
2023/09/11 01:32:51;;;;;;;12.15;9.85;;;26.60;60.50;28.10;101231.00;;;;5111169;28;20217;-88
2023/09/11 01:35:20;;;;;;;15.00;10.48;;;26.60;60.50;28.10;101227.00;;;;5108717;28;20197;-87
2023/09/11 01:37:47;;;;;;;12.40;9.82;;;26.50;60.50;28.10;101233.00;;;;5109974;28;20197;-89
2023/09/11 01:40:14;;;;;;;11.27;10.07;;;26.50;60.60;28.10;101234.00;;;;5111468;28;20196;-89
2023/09/11 01:42:49;;;;;;;11.48;10.07;;;26.50;60.70;28.00;101227.00;;;;5100923;28;20190;-88
2023/09/11 01:45:26;;;;;;;10.90;9.80;;;26.40;60.80;27.90;101231.00;;;;5103308;28;20658;-89
2023/09/11 01:47:55;;;;;;;11.23;10.05;;;26.40;60.90;28.00;101228.00;;;;5114653;28;20197;-88
2023/09/11 01:50:23;;;;;;;14.43;10.20;;;26.40;60.80;28.00;101224.00;;;;5115615;28;20208;-89
2023/09/11 01:52:53;;;;;;;10.18;9.18;;;26.40;60.80;28.00;101224.00;;;;5107893;28;20232;-88
2023/09/11 01:55:22;;;;;;;10.43;9.27;;;26.40;60.90;28.00;101225.00;;;;5116145;28;20201;-88
2023/09/11 01:57:49;;;;;;;10.95;9.85;;;26.40;60.90;28.00;101222.00;;;;5115984;28;20193;-89
2023/09/11 02:00:17;;;;;;;12.02;9.50;;;26.40;60.90;28.00;101222.00;;;;5114738;28;20233;-89
2023/09/11 02:02:51;;;;;;;11.00;9.85;;;26.40;61.00;27.90;101221.00;;;;5115503;28;20201;-88
2023/09/11 02:05:23;;;;;;;12.15;10.43;;;26.30;61.00;27.90;101220.00;;;;5115454;28;20280;-88
2023/09/11 02:07:50;;;;;;;11.57;10.27;;;26.30;61.00;27.90;101215.00;;;;5115733;28;20193;-89
2023/09/11 02:10:18;;;;;;;11.50;9.82;;;26.30;61.00;27.90;101219.00;;;;5094790;28;20220;-89
2023/09/11 02:12:51;;;;;;;14.27;9.70;;;26.30;61.00;27.80;101208.00;;;;5095307;28;20255;-88
2023/09/11 02:15:20;;;;;;;13.80;11.00;;;26.20;61.20;27.80;101209.00;;;;5104703;28;20193;-88
2023/09/11 02:17:49;;;;;;;11.63;10.25;;;26.30;61.10;27.80;101209.00;;;;5109451;28;20204;-88
2023/09/11 02:20:31;;;;;;;11.82;10.38;;;26.20;61.10;27.70;101208.00;;;;5098010;28;20846;-88
2023/09/11 02:23:02;;;;;;;11.90;10.60;;;26.20;61.60;27.80;101204.00;;;;5115331;28;20197;-88
2023/09/11 02:25:29;;;;;;;11.75;10.52;;;26.20;61.10;27.80;101202.00;;;;5115353;28;20206;-89
2023/09/11 02:27:57;;;;;;;13.70;10.43;;;26.20;61.10;27.80;101198.00;;;;5116111;28;20197;-89
2023/09/11 02:30:31;;;;;;;13.07;10.38;;;26.20;61.20;27.70;101196.00;;;;5116089;28;20186;-89
2023/09/11 02:33:00;;;;;;;12.60;10.55;;;26.20;61.50;27.70;101186.00;;;;5116187;28;20241;-89
2023/09/11 02:35:32;;;;;;;12.70;10.77;;;26.20;61.30;27.70;101193.00;;;;5114766;28;20652;-89
2023/09/11 02:38:04;;;;;;;13.75;11.55;;;26.10;61.40;27.70;101193.00;;;;5115699;28;20584;-88
2023/09/11 02:40:32;;;;;;;17.48;11.90;;;26.10;61.40;27.70;101194.00;;;;5115657;28;20198;-89
2023/09/11 02:42:59;;;;;;;14.20;12.15;;;26.10;61.30;27.70;101197.00;;;;5116823;27;20297;-88
2023/09/11 02:45:32;;;;;;;14.88;11.25;;;26.10;61.30;27.70;101191.00;;;;5110532;28;20205;-89
2023/09/11 02:48:00;;;;;;;15.35;11.32;;;26.10;61.60;27.70;101185.00;;;;5114802;28;20656;-89
2023/09/11 02:50:29;;;;;;;14.15;11.65;;;26.10;61.40;27.70;101189.00;;;;5109420;28;20569;-88
2023/09/11 02:53:12;;;;;;;16.10;11.77;;;26.10;61.40;27.60;101183.00;;;;5114042;28;20222;-89
2023/09/11 02:55:46;;;;;;;14.43;11.68;;;26.00;61.70;27.60;101193.00;;;;5104497;28;20190;-89
2023/09/11 02:58:29;;;;;;;13.60;11.32;;;26.00;61.60;27.50;101173.00;;;;5112816;28;20192;-89
2023/09/11 03:01:02;;;;;;;14.02;11.98;;;26.00;61.70;27.60;101165.00;;;;5115210;28;20220;-89
2023/09/11 03:03:30;;;;;;;16.05;12.95;;;26.00;61.50;27.60;101182.00;;;;5100450;28;20190;-88
2023/09/11 03:06:03;;;;;;;13.43;12.05;;;26.00;61.40;27.60;101171.00;;;;5100267;28;20193;-87
2023/09/11 03:08:30;;;;;;;20.85;12.70;;;26.00;61.60;27.60;101170.00;;;;5113076;28;20878;-89
2023/09/11 03:11:06;;;;;;;15.82;12.60;;;26.00;61.40;27.50;101169.00;;;;5113179;28;20698;-88
2023/09/11 03:13:34;;;;;;;15.25;12.30;;;26.00;61.70;27.60;101163.00;;;;5113857;28;20217;-88
2023/09/11 03:16:09;;;;;;;15.38;12.50;;;26.00;61.50;27.50;101154.00;;;;5111840;28;20190;-89
2023/09/11 03:18:40;;;;;;;13.65;12.25;;;26.00;61.60;27.50;101153.00;;;;5109419;28;20192;-88
2023/09/11 03:21:14;;;;;;;18.05;12.52;;;25.90;61.50;27.50;101151.00;;;;5114136;28;20201;-88
2023/09/11 03:23:41;;;;;;;13.80;12.23;;;25.90;61.70;27.50;101144.00;;;;5114043;28;20200;-88
2023/09/11 03:26:15;;;;;;;14.25;12.80;;;25.90;61.50;27.40;101158.00;;;;5113698;28;20217;-88
2023/09/11 03:28:49;;;;;;;15.52;12.20;;;25.90;61.70;27.40;101149.00;;;;5113160;28;20190;-88
2023/09/11 03:31:16;;;;;;;16.27;12.00;;;25.90;61.70;27.50;101156.00;;;;5106396;28;20194;-87
2023/09/11 03:33:45;;;;;;;16.38;12.60;;;25.80;61.50;27.40;101144.00;;;;5107372;28;20228;-83
2023/09/11 03:36:16;;;;;;;14.65;12.82;;;25.80;61.50;27.40;101143.00;;;;5106837;28;20723;-83
2023/09/11 03:38:43;;;;;;;16.55;13.02;;;25.80;61.60;27.40;101140.00;;;;5110735;28;20206;-83
2023/09/11 03:41:11;;;;;;;14.77;12.85;;;25.80;61.60;27.40;101138.00;;;;5097990;28;20695;-82
2023/09/11 03:43:38;;;;;;;14.93;13.30;;;25.80;61.70;27.40;101138.00;;;;5110856;28;20660;-83
2023/09/11 03:46:05;;;;;;;14.60;13.02;;;25.80;61.70;27.40;101137.00;;;;5100024;28;20676;-82
2023/09/11 03:48:32;;;;;;;17.60;14.35;;;25.80;61.70;27.40;101138.00;;;;5090491;28;20190;-83
2023/09/11 03:51:01;;;;;;;15.77;13.35;;;25.80;61.80;27.40;101132.00;;;;5099767;28;20693;-83
2023/09/11 03:53:27;;;;;;;14.43;12.60;;;25.80;61.80;27.40;101126.00;;;;5098962;28;20222;-83
2023/09/11 03:55:56;;;;;;;18.08;13.68;;;25.70;61.70;27.30;101118.00;;;;5090916;28;20739;-83
2023/09/11 03:58:23;;;;;;;22.83;14.02;;;25.70;61.80;27.30;101112.00;;;;5104783;28;20196;-82
2023/09/11 04:00:50;;;;;;;15.70;13.18;;;25.70;61.70;27.30;101124.00;;;;5102723;28;20233;-83
2023/09/11 04:03:17;;;;;;;14.75;13.20;;;25.70;61.80;27.30;101119.00;;;;5100783;28;20575;-82
2023/09/11 04:05:44;;;;;;;15.27;13.73;;;25.70;61.80;27.30;101118.00;;;;5096130;28;20655;-82
2023/09/11 04:08:12;;;;;;;14.85;12.77;;;25.70;61.80;27.20;101112.00;;;;5097936;28;20707;-82
2023/09/11 04:10:39;;;;;;;18.33;13.88;;;25.70;61.90;27.20;101105.00;;;;5100027;28;20221;-82
2023/09/11 04:13:06;;;;;;;18.60;14.43;;;25.60;61.80;27.20;101104.00;;;;5109695;28;20750;-82
2023/09/11 04:15:33;;;;;;;20.65;14.23;;;25.60;61.80;27.20;101106.00;;;;5095706;28;20221;-82
2023/09/11 04:18:00;;;;;;;20.73;14.52;;;25.60;61.90;27.20;101102.00;;;;5103201;27;20640;-83
2023/09/11 04:20:32;;;;;;;15.45;13.85;;;25.50;61.80;27.20;101106.00;;;;5108549;28;20205;-83
2023/09/11 04:23:00;;;;;;;15.27;12.40;;;25.60;62.00;27.10;101104.00;;;;5110176;28;20200;-82
2023/09/11 04:25:28;;;;;;;17.67;14.13;;;25.50;61.90;27.10;101106.00;;;;5095036;28;20205;-82
2023/09/11 04:27:56;;;;;;;15.07;13.57;;;25.50;61.90;27.10;101111.00;;;;5090070;28;20190;-82
2023/09/11 04:30:24;;;;;;;15.88;13.95;;;25.50;61.90;27.10;101094.00;;;;5100695;28;20342;-83
2023/09/11 04:32:52;;;;;;;17.17;13.70;;;25.50;62.00;27.10;101100.00;;;;5109777;28;20224;-82
2023/09/11 04:35:20;;;;;;;17.67;14.73;;;25.50;62.00;27.10;101099.00;;;;5108966;28;20574;-85
2023/09/11 04:37:47;;;;;;;15.80;13.63;;;25.40;61.90;27.00;101105.00;;;;5105358;28;20193;-82
2023/09/11 04:40:14;;;;;;;17.83;14.38;;;25.40;62.00;27.00;101102.00;;;;5101254;28;20193;-82
2023/09/11 04:42:43;;;;;;;15.77;14.10;;;25.40;62.00;27.00;101107.00;;;;5097875;28;20205;-86
2023/09/11 04:45:11;;;;;;;18.02;13.63;;;25.40;62.00;27.00;101095.00;;;;5109206;28;20344;-82
2023/09/11 04:47:38;;;;;;;15.82;14.18;;;25.40;62.10;27.00;101089.00;;;;5109076;28;20197;-82
2023/09/11 04:50:06;;;;;;;18.88;15.48;;;25.30;62.00;26.90;101095.00;;;;5106636;27;20214;-81
2023/09/11 04:52:33;;;;;;;17.75;15.20;;;25.30;62.00;26.90;101094.00;;;;5107243;28;20201;-81
2023/09/11 04:55:00;;;;;;;16.88;15.07;;;25.30;62.10;26.90;101087.00;;;;5109000;28;20197;-81
2023/09/11 04:57:27;;;;;;;16.45;14.30;;;25.30;62.10;26.90;101093.00;;;;5097270;28;20217;-81
2023/09/11 04:59:55;;;;;;;15.45;13.50;;;25.30;62.10;26.90;101091.00;;;;5105042;28;20614;-81
2023/09/11 05:02:22;;;;;;;17.08;13.77;;;25.30;62.20;26.90;101094.00;;;;5107213;28;20198;-81
2023/09/11 05:04:50;;;;;;;15.48;13.73;;;25.20;62.20;26.80;101088.00;;;;5108807;28;20190;-81
2023/09/11 05:07:17;;;;;;;16.33;14.27;;;25.20;62.20;26.80;101099.00;;;;5105686;28;20652;-81
2023/09/11 05:09:44;;;;;;;15.90;14.07;;;25.20;62.30;26.80;101092.00;;;;5109195;28;20243;-80
2023/09/11 05:12:11;;;;;;;16.80;14.45;;;25.20;62.30;26.80;101091.00;;;;5107331;28;20328;-79
2023/09/11 05:14:38;;;;;;;15.35;11.93;;;25.20;62.40;26.80;101088.00;;;;5092183;28;20222;-80
2023/09/11 05:17:06;;;;;;;16.58;14.35;;;25.10;62.30;26.80;101099.00;;;;5102692;28;20193;-80
2023/09/11 05:19:33;;;;;;;17.40;14.30;;;25.20;62.50;26.80;101093.00;;;;5097808;28;20201;-80
2023/09/11 05:22:00;;;;;;;15.05;13.30;;;25.20;62.50;26.80;101099.00;;;;5100986;28;20202;-81
2023/09/11 05:24:27;;;;;;;14.45;12.95;;;25.20;62.50;26.80;101090.00;;;;5106628;28;20200;-80
2023/09/11 05:26:54;;;;;;;16.00;14.00;;;25.20;62.50;26.80;101095.00;;;;5102167;28;20193;-82
2023/09/11 05:29:21;;;;;;;15.85;14.00;;;25.20;62.60;26.80;101088.00;;;;5103186;28;20202;-81
2023/09/11 05:31:47;;;;;;;17.67;14.18;;;25.20;62.60;26.80;101092.00;;;;5097948;28;20847;-81
2023/09/11 05:34:16;;;;;;;15.20;13.50;;;25.20;62.60;26.80;101103.00;;;;5102591;28;20220;-81
2023/09/11 05:36:43;;;;;;;16.65;13.68;;;25.20;62.70;26.80;101099.00;;;;5100937;28;20201;-84
2023/09/11 05:39:10;;;;;;;15.23;13.48;;;25.20;62.60;26.80;101103.00;;;;5100989;28;20201;-82
2023/09/11 05:41:37;;;;;;;14.82;13.20;;;25.20;62.60;26.90;101109.00;;;;5108025;28;20579;-84
2023/09/11 05:44:05;;;;;;;19.95;13.20;;;25.20;62.70;26.90;101111.00;;;;5105224;28;20193;-82
2023/09/11 05:46:32;;;;;;;16.55;12.90;;;25.20;62.70;26.90;101107.00;;;;5103323;28;20975;-81
2023/09/11 05:48:59;;;;;;;15.93;13.70;;;25.20;62.70;26.90;101115.00;;;;5101012;28;20198;-82
2023/09/11 05:51:27;;;;;;;20.05;13.60;;;25.30;62.80;26.90;101112.00;;;;5090934;28;20189;-82
2023/09/11 05:53:54;;;;;;;15.88;13.07;;;25.30;62.80;26.90;101111.00;;;;5099052;28;20221;-81
2023/09/11 05:56:21;;;;;;;14.55;12.95;;;25.30;62.80;26.90;101115.00;;;;5105942;28;20659;-81
2023/09/11 05:58:48;;;;;;;14.05;11.85;;;25.30;62.80;26.90;101116.00;;;;5103792;28;20193;-84
2023/09/11 06:01:15;;;;;;;16.95;13.10;;;25.30;62.80;27.00;101123.00;;;;5094169;28;20247;-82
2023/09/11 06:03:42;;;;;;;13.40;12.05;;;25.30;62.80;27.00;101123.00;;;;5092151;28;20202;-82
2023/09/11 06:06:09;;;;;;;16.90;11.90;;;25.40;62.80;27.00;101118.00;;;;5093608;28;20194;-82
2023/09/11 06:08:37;;;;;;;13.73;12.27;;;25.40;62.80;27.00;101123.00;;;;5092207;28;20210;-82
2023/09/11 06:11:04;;;;;;;13.52;12.15;;;25.40;62.90;27.10;101125.00;;;;5108045;28;20210;-82
2023/09/11 06:13:33;;;;;;;13.75;12.35;;;25.40;62.80;27.10;101128.00;;;;5100861;28;20232;-82
2023/09/11 06:16:00;;;;;;;13.25;11.75;;;25.40;62.90;27.10;101131.00;;;;5091661;28;20198;-82
2023/09/11 06:18:27;;;;;;;12.70;11.40;;;25.50;62.90;27.10;101133.00;;;;5100699;28;20202;-82
2023/09/11 06:20:54;;;;;;;15.52;11.68;;;25.50;63.00;27.20;101134.00;;;;5088740;28;20224;-83
2023/09/11 06:23:21;;;;;;;12.75;11.43;;;25.50;62.90;27.20;101139.00;;;;5099264;28;20206;-83
2023/09/11 06:25:50;;;;;;;12.07;10.88;;;25.50;62.90;27.20;101131.00;;;;5091515;28;20213;-82
2023/09/11 06:28:17;;;;;;;12.32;11.15;;;25.60;63.00;27.20;101139.00;;;;5101268;28;20558;-83
2023/09/11 06:30:44;;;;;;;15.05;12.43;;;25.60;62.90;27.30;101136.00;;;;5108456;28;20202;-82
2023/09/11 06:33:11;;;;;;;13.15;11.75;;;25.70;63.00;27.30;101137.00;;;;5110601;28;20217;-82
2023/09/11 06:35:38;;;;;;;14.30;11.30;;;25.70;63.00;27.30;101134.00;;;;5103768;28;20255;-83
2023/09/11 06:38:05;;;;;;;15.75;11.38;;;25.70;62.90;27.40;101144.00;;;;5110225;28;20205;-84
2023/09/11 06:40:32;;;;;;;15.48;12.00;;;25.70;62.90;27.40;101137.00;;;;5111929;27;20213;-83
2023/09/11 06:43:00;;;;;;;12.80;11.32;;;25.70;62.70;27.40;101139.00;;;;5102311;28;20202;-82
2023/09/11 06:45:27;;;;;;;13.65;11.30;;;25.80;63.30;27.50;101143.00;;;;5107689;28;20226;-83
2023/09/11 06:47:54;;;;;;;13.00;11.68;;;25.80;62.50;27.50;101143.00;;;;5093471;28;20194;-82
2023/09/11 06:50:21;;;;;;;11.60;10.23;;;25.80;62.50;27.60;101146.00;;;;5095691;28;20205;-83
2023/09/11 06:52:48;;;;;;;14.40;11.55;;;25.90;62.50;27.60;101154.00;;;;5105853;28;20222;-87
2023/09/11 06:55:15;;;;;;;14.15;9.93;;;26.00;62.50;27.60;101150.00;;;;5112966;28;20709;-88
2023/09/11 06:57:56;;;;;;;15.40;10.27;;;26.00;62.40;27.60;101142.00;;;;5111796;28;20201;-88
2023/09/11 07:00:25;;;;;;;12.60;9.90;;;26.10;62.30;27.70;101150.00;;;;5112776;28;20233;-89
2023/09/11 07:02:56;;;;;;;15.68;9.63;;;26.10;62.20;27.70;101145.00;;;;5116947;28;20213;-90
2023/09/11 07:05:26;;;;;;;13.95;9.95;;;26.10;62.20;27.80;101145.00;;;;5122036;27;20211;-89
2023/09/11 07:07:53;;;;;;;10.93;9.23;;;26.20;62.20;27.80;101142.00;;;;5115803;28;20274;-86
2023/09/11 07:10:24;;;;;;;10.50;9.13;;;26.20;62.10;27.80;101121.00;;;;5127537;28;20219;-89
2023/09/11 07:12:53;;;;;;;10.35;9.02;;;26.30;62.10;27.90;101139.00;;;;5126366;28;20233;-88
2023/09/11 07:15:25;;;;;;;12.60;8.52;;;26.30;62.10;27.90;101136.00;;;;5122450;28;20212;-91
2023/09/11 07:17:58;;;;;;;14.95;9.27;;;26.40;62.00;28.00;101102.00;;;;5121950;28;20197;-90
2023/09/11 07:20:27;;;;;;;13.30;11.10;;;26.40;61.80;28.10;101122.00;;;;5123102;28;20196;-89
2023/09/11 07:23:01;;;;;;;11.90;9.38;;;26.50;61.80;28.10;101144.00;;;;5126431;28;20281;-88
2023/09/11 07:25:28;;;;;;;11.05;9.50;;;26.50;61.80;28.20;101136.00;;;;5119843;28;20289;-90
2023/09/11 07:28:01;;;;;;;10.35;9.07;;;26.60;61.70;28.10;101138.00;;;;5119010;28;20203;-90
2023/09/11 07:30:30;;;;;;;15.23;9.93;;;26.60;61.60;28.20;101140.00;;;;5108294;28;20194;-90
2023/09/11 07:32:57;;;;;;;11.32;8.48;;;26.70;61.60;28.30;101142.00;;;;5108768;28;20202;-90
2023/09/11 07:35:27;;;;;;;12.55;8.85;;;26.70;61.60;28.30;101147.00;;;;5119624;28;20226;-91
2023/09/11 07:37:57;;;;;;;10.45;7.90;;;26.80;61.60;28.40;101119.00;;;;5121565;28;20195;-89
2023/09/11 07:40:30;;;;;;;11.38;8.23;;;26.80;61.60;28.40;101145.00;;;;5112910;28;20193;-86
2023/09/11 07:42:57;;;;;;;9.38;8.40;;;26.90;61.40;28.50;101139.00;;;;5114766;28;20202;-92
2023/09/11 07:45:27;;;;;;;9.35;8.38;;;26.90;61.30;28.60;101128.00;;;;5109632;28;20212;-91
2023/09/11 07:47:58;;;;;;;10.52;8.77;;;27.00;61.10;28.60;101128.00;;;;5114165;28;20213;-92
2023/09/11 07:50:31;;;;;;;14.73;8.30;;;27.00;61.00;28.60;101141.00;;;;5118249;28;20313;-92
2023/09/11 07:53:02;;;;;;;10.20;8.20;;;27.10;61.20;28.70;101144.00;;;;5113562;27;20253;-91
2023/09/11 07:55:31;;;;;;;10.40;8.82;;;27.20;61.10;28.80;101168.00;;;;5126029;27;20205;-88
2023/09/11 07:58:09;;;;;;;14.85;8.88;;;27.20;61.10;28.80;101170.00;;;;5117598;27;20740;-91
2023/09/11 08:00:36;;;;;;;10.60;8.45;;;27.30;60.90;29.00;101165.00;;;;5115173;28;20793;-87
2023/09/11 08:03:05;;;;;;;9.95;8.75;;;27.40;61.00;29.00;101147.00;;;;5108888;28;20675;-91
2023/09/11 08:05:33;;;;;;;11.80;8.20;;;27.40;60.80;29.10;101168.00;;;;5112983;28;20247;-88
2023/09/11 08:08:01;;;;;;;9.90;8.90;;;27.50;60.80;29.10;101173.00;;;;5114914;28;20202;-88
2023/09/11 08:10:30;;;;;;;8.85;7.97;;;27.50;60.70;29.20;101177.00;;;;5114837;27;20235;-88
2023/09/11 08:12:58;;;;;;;10.25;8.40;;;27.60;60.70;29.30;101166.00;;;;5116895;28;20212;-88
2023/09/11 08:15:28;;;;;;;12.90;8.13;;;27.70;60.60;29.30;101169.00;;;;5116230;28;20217;-88
2023/09/11 08:17:56;;;;;;;9.23;7.78;;;27.80;60.40;29.40;101175.00;;;;5108111;28;20203;-88
2023/09/11 08:20:25;;;;;;;10.70;9.15;;;27.80;60.20;29.40;101171.00;;;;5106781;28;20229;-88
2023/09/11 08:22:54;;;;;;;9.25;7.80;;;27.90;60.20;29.50;101152.00;;;;5113482;28;20203;-87
2023/09/11 08:25:21;;;;;;;10.25;8.45;;;27.90;60.20;29.60;101175.00;;;;5117435;28;20193;-89
2023/09/11 08:27:49;;;;;;;13.82;9.55;;;28.00;60.10;29.60;101176.00;;;;5098181;28;20190;-89
2023/09/11 08:30:16;;;;;;;12.52;9.65;;;28.00;59.90;29.60;101172.00;;;;5115548;28;20186;-90
2023/09/11 08:32:44;;;;;;;12.32;9.13;;;28.10;59.80;29.70;101169.00;;;;5112395;28;20206;-88
2023/09/11 08:35:13;;;;;;;9.07;8.25;;;28.20;59.90;29.80;101173.00;;;;5111031;28;20224;-89
2023/09/11 08:37:41;;;;;;;10.40;8.55;;;28.20;59.90;29.80;101171.00;;;;5105490;28;20201;-89
2023/09/11 08:40:10;;;;;;;10.27;8.50;;;28.30;59.80;29.90;101177.00;;;;5099424;28;20293;-88
2023/09/11 08:42:37;;;;;;;9.10;7.95;;;28.40;59.80;30.00;101175.00;;;;5112129;28;20205;-89
2023/09/11 08:45:04;;;;;;;8.65;7.75;;;28.40;59.70;30.10;101179.00;;;;5113233;28;20218;-88
2023/09/11 08:47:34;;;;;;;9.13;7.65;;;28.50;59.70;30.10;101179.00;;;;5108573;28;20197;-88
2023/09/11 08:50:06;;;;;;;11.13;8.13;;;28.60;59.70;30.20;101177.00;;;;5103921;28;20193;-86
2023/09/11 08:52:35;;;;;;;10.27;8.38;;;28.70;59.50;30.30;101172.00;;;;5107020;28;20230;-85
2023/09/11 08:55:10;;;;;;;9.40;7.15;;;28.80;59.50;30.30;101170.00;;;;5103339;28;20250;-85
2023/09/11 08:57:42;;;;;;;9.15;6.88;;;28.80;59.30;30.40;101173.00;;;;5109543;28;20715;-87
2023/09/11 09:00:13;;;;;;;10.00;7.75;;;28.90;59.50;30.50;101167.00;;;;5105804;28;20217;-86
2023/09/11 09:02:42;;;;;;;9.50;7.65;;;29.00;59.60;30.60;101178.00;;;;5105210;28;20246;-86
2023/09/11 09:05:10;;;;;;;8.50;7.57;;;29.10;59.50;30.80;101179.00;;;;5100331;28;20197;-83
2023/09/11 09:07:40;;;;;;;8.80;7.45;;;29.20;59.40;30.80;101184.00;;;;5109789;28;20198;-85
2023/09/11 09:10:10;;;;;;;7.13;6.38;;;29.30;59.30;30.90;101187.00;;;;5106353;28;20209;-85
2023/09/11 09:12:39;;;;;;;8.90;6.47;;;29.40;59.00;31.00;101174.00;;;;5117875;28;20211;-85
2023/09/11 09:15:08;;;;;;;6.78;5.78;;;29.40;58.60;31.10;101180.00;;;;5114203;28;20240;-84
2023/09/11 09:17:37;;;;;;;6.82;6.22;;;29.50;58.30;31.20;101175.00;;;;5111315;28;20189;-86
2023/09/11 09:20:05;;;;;;;9.90;6.57;;;29.60;58.30;31.30;101190.00;;;;5117993;28;20201;-83
2023/09/11 09:22:32;;;;;;;7.72;5.90;;;29.70;58.10;31.40;101184.00;;;;5096961;28;20209;-84
2023/09/11 09:24:59;;;;;;;9.07;5.65;;;29.80;57.90;31.50;101188.00;;;;5109881;28;20197;-85
2023/09/11 09:27:28;;;;;;;7.97;5.68;;;29.90;58.00;31.50;101187.00;;;;5102293;28;20225;-86
2023/09/11 09:29:56;;;;;;;6.90;5.60;;;30.00;57.70;31.60;101184.00;;;;5090329;28;20705;-86
2023/09/11 09:32:23;;;;;;;11.20;5.05;;;30.10;57.40;31.70;101188.00;;;;5106107;28;20663;-84
2023/09/11 09:34:54;;;;;;;5.47;4.97;;;30.20;57.30;31.70;101173.00;;;;5110569;28;20226;-85
2023/09/11 09:37:22;;;;;;;7.65;5.35;;;30.30;56.90;31.80;101183.00;;;;5119578;28;20203;-84
2023/09/11 09:39:50;;;;;;;10.10;5.55;;;30.40;56.50;31.90;101171.00;;;;5114606;28;20268;-83
2023/09/11 09:42:18;;;;;;;5.65;4.90;;;30.50;56.50;32.00;101180.00;;;;5113556;28;20197;-86
2023/09/11 09:44:53;;;;;;;5.10;4.60;;;30.50;56.30;32.00;101181.00;;;;5104276;28;20258;-84
2023/09/11 09:47:21;;;;;;;8.95;4.82;;;30.60;56.10;32.10;101176.00;;;;5105175;28;20185;-85
2023/09/11 09:49:52;;;;;;;6.97;4.78;;;30.70;56.00;32.20;101173.00;;;;5103268;28;20241;-85
2023/09/11 09:52:23;;;;;;;5.55;4.90;;;30.80;55.70;32.30;101181.00;;;;5107009;28;20239;-82
2023/09/11 09:54:56;;;;;;;6.45;5.00;;;30.90;55.70;32.30;101183.00;;;;5104082;28;20317;-83
2023/09/11 09:57:26;;;;;;;9.30;5.38;;;30.90;55.20;32.40;101180.00;;;;5115395;28;20204;-84
2023/09/11 09:59:58;;;;;;;7.05;6.05;;;31.10;55.40;32.50;101174.00;;;;5112867;28;20229;-85
2023/09/11 10:02:29;;;;;;;5.28;4.68;;;31.10;55.00;32.50;101174.00;;;;5108388;28;20197;-86
2023/09/11 10:05:02;;;;;;;6.15;5.18;;;31.20;55.10;32.60;101161.00;;;;5115015;28;20662;-85
2023/09/11 10:07:41;;;;;;;7.00;6.03;;;31.20;55.20;32.60;101177.00;;;;5109558;28;20201;-84
2023/09/11 10:10:25;;;;;;;8.93;5.80;;;31.30;54.40;32.70;101177.00;;;;5103393;28;20714;-84
2023/09/11 10:13:06;;;;;;;6.55;4.90;;;31.50;54.20;32.80;101173.00;;;;5108251;28;20289;-80
2023/09/11 10:15:37;;;;;;;6.70;4.50;;;31.60;54.20;33.00;101180.00;;;;5106598;27;20235;-82
2023/09/11 10:18:06;;;;;;;4.82;4.35;;;31.60;54.60;33.10;101181.00;;;;5109182;28;20683;-83
2023/09/11 10:20:34;;;;;;;9.63;4.93;;;31.70;54.60;33.20;101178.00;;;;5107160;28;20228;-84
2023/09/11 10:23:05;;;;;;;6.38;5.53;;;31.80;54.40;33.20;101176.00;;;;5106265;28;20197;-86
2023/09/11 10:25:39;;;;;;;5.53;4.80;;;31.90;54.00;33.30;101179.00;;;;5102406;28;20208;-83
2023/09/11 10:28:08;;;;;;;6.35;4.97;;;32.00;53.80;33.40;101181.00;;;;5110045;28;20204;-83
2023/09/11 10:30:49;;;;;;;8.13;5.25;;;32.00;53.50;33.30;101177.00;;;;5111246;28;20673;-84
2023/09/11 10:33:21;;;;;;;7.70;5.80;;;32.10;53.20;33.40;101178.00;;;;5100432;28;20193;-86
2023/09/11 10:35:56;;;;;;;6.78;5.35;;;32.20;53.30;33.40;101176.00;;;;5099070;28;20252;-82
2023/09/11 10:38:24;;;;;;;9.30;5.45;;;32.20;53.10;33.50;101178.00;;;;5105732;28;21033;-82
2023/09/11 10:40:54;;;;;;;6.55;5.53;;;32.30;53.30;33.60;101179.00;;;;5095019;28;20546;-83
2023/09/11 10:43:22;;;;;;;9.02;6.10;;;32.30;53.10;33.70;101175.00;;;;5105796;28;20190;-83
2023/09/11 10:45:53;;;;;;;8.48;6.50;;;32.40;53.20;33.70;101177.00;;;;5098276;28;20201;-84
2023/09/11 10:48:28;;;;;;;9.60;7.45;;;32.40;53.20;33.70;101170.00;;;;5107025;28;20192;-84